Time;durP1;ratioP1;P1;durP2;ratioP2;P2;SDS_P1;SDS_P2;PMS_P1;PMS_P2;Temp;Humidity;BMP_temperature;BMP_pressure;BME280_temperature;BME280_humidity;BME280_pressure;Samples;Min_cycle;Max_cycle;Signal;HPM_P1;HPM_P2
2022/01/16 00:07:27;;;;;;;39.70;25.30;;;;;;;2.13;82.07;101155.75;2924149;81;21038;-72
2022/01/16 00:11:29;;;;;;;45.38;27.05;;;;;;;2.17;81.83;101160.46;2924212;81;21348;-73
2022/01/16 00:15:30;;;;;;;43.78;27.62;;;;;;;2.19;81.69;101153.86;2924191;81;21060;-72
2022/01/16 00:19:32;;;;;;;44.03;24.15;;;;;;;2.14;81.26;101145.66;2924237;81;21030;-73
2022/01/16 00:23:34;;;;;;;40.20;26.73;;;;;;;2.16;81.36;101153.94;2923853;81;21037;-73
2022/01/16 00:27:36;;;;;;;48.87;25.25;;;;;;;2.19;81.22;101160.42;2923977;81;21049;-74
2022/01/16 00:31:40;;;;;;;47.48;23.65;;;;;;;2.16;81.12;101168.38;2923581;81;21006;-74
2022/01/16 00:35:41;;;;;;;41.98;23.55;;;;;;;2.16;81.00;101111.94;2923595;80;21542;-73
2022/01/16 00:39:43;;;;;;;40.33;26.17;;;;;;;2.12;80.87;101104.16;2875522;81;21479;-73
2022/01/16 00:43:45;;;;;;;47.38;27.22;;;;;;;2.19;81.04;101111.86;2927961;81;21034;-73
2022/01/16 00:47:47;;;;;;;41.20;27.10;;;;;;;2.28;80.82;101127.28;2927686;81;21017;-73
2022/01/16 00:51:49;;;;;;;48.05;28.67;;;;;;;2.30;79.87;101135.13;2927925;81;21152;-72
2022/01/16 00:55:50;;;;;;;48.13;28.85;;;;;;;2.32;79.68;101140.70;2927853;81;20989;-72
2022/01/16 00:59:52;;;;;;;48.05;32.03;;;;;;;2.37;79.36;101132.69;2928089;81;21042;-73
2022/01/16 01:03:54;;;;;;;51.95;29.75;;;;;;;2.39;78.87;101125.61;2927916;81;20974;-73
2022/01/16 01:07:55;;;;;;;60.08;29.92;;;;;;;2.35;78.68;101124.00;2928166;81;21026;-72
2022/01/16 01:11:57;;;;;;;60.55;29.02;;;;;;;2.33;78.74;101138.48;2928014;81;21673;-71
2022/01/16 01:16:04;;;;;;;72.67;37.10;;;;;;;2.35;78.65;101154.20;2928415;81;21029;-73
2022/01/16 01:20:08;;;;;;;64.77;35.05;;;;;;;2.36;78.37;101101.64;2928637;81;21010;-72
2022/01/16 01:24:09;;;;;;;63.33;33.40;;;;;;;2.33;78.22;101119.27;2928492;81;21052;-73
2022/01/16 01:28:12;;;;;;;75.42;39.98;;;;;;;2.30;77.98;101114.12;2929011;81;20970;-73
2022/01/16 01:32:14;;;;;;;72.30;38.83;;;;;;;2.25;78.05;101118.20;2928868;81;21011;-73
2022/01/16 01:36:16;;;;;;;46.80;28.85;;;;;;;2.08;78.15;101126.18;2928902;81;21057;-72
2022/01/16 01:40:22;;;;;;;55.10;28.55;;;;;;;1.81;79.28;101118.31;2928836;81;20986;-72
2022/01/16 01:53:02;;;;;;;43.73;22.40;;;;;;;1.90;80.34;100978.09;2928723;81;21029;-72
2022/01/16 01:57:04;;;;;;;37.60;24.75;;;;;;;2.00;80.32;101016.68;2928846;81;21637;-73
2022/01/16 02:01:06;;;;;;;49.15;22.40;;;;;;;2.08;79.74;101022.50;2928619;81;20991;-73
2022/01/16 02:05:10;;;;;;;42.13;24.10;;;;;;;2.08;78.99;101047.44;2928513;81;21388;-73
2022/01/16 02:09:12;;;;;;;43.55;24.32;;;;;;;2.09;78.14;101026.00;2928754;81;20994;-72
2022/01/16 02:34:38;;;;;;;38.30;25.27;;;;;;;1.94;79.13;101033.48;2928420;81;21010;-72
2022/01/16 02:38:38;;;;;;;38.75;21.87;;;;;;;1.78;79.55;101037.08;2928434;80;21052;-70
2022/01/16 02:42:44;;;;;;;36.75;21.77;;;;;;;1.51;80.38;101032.28;2928696;81;21029;-72
2022/01/16 02:46:44;;;;;;;40.00;25.17;;;;;;;1.15;81.95;101049.09;2927913;81;21029;-70
2022/01/16 02:50:46;;;;;;;46.35;24.65;;;;;;;1.06;82.25;101046.75;2928340;81;20978;-73
2022/01/16 02:54:50;;;;;;;51.60;25.23;;;;;;;1.05;82.45;101014.91;2928185;81;20988;-72
2022/01/16 02:58:52;;;;;;;43.13;23.62;;;;;;;0.95;82.78;101008.62;2928469;81;20979;-72
2022/01/16 03:02:54;;;;;;;42.13;24.50;;;;;;;0.95;83.01;101012.55;2928305;81;21025;-72
2022/01/16 03:06:58;;;;;;;49.13;24.90;;;;;;;1.02;83.25;100998.81;2927802;81;21002;-72
2022/01/16 03:15:06;;;;;;;36.68;25.68;;;;;;;0.98;82.67;101003.75;2928259;81;21708;-72
2022/01/16 03:23:25;;;;;;;47.20;25.00;;;;;;;0.85;84.00;100984.94;2928380;81;20979;-73
2022/01/16 03:27:26;;;;;;;40.88;24.47;;;;;;;0.96;83.84;100961.86;2927885;81;21005;-72
2022/01/16 03:31:28;;;;;;;58.42;28.00;;;;;;;1.05;83.84;100959.88;2928200;81;21046;-74
2022/01/16 03:35:30;;;;;;;48.68;30.27;;;;;;;1.14;83.51;100954.34;2928467;81;21523;-72
2022/01/16 03:39:32;;;;;;;49.42;27.00;;;;;;;1.17;83.11;100948.99;2928069;81;21050;-72
2022/01/16 03:43:33;;;;;;;53.05;30.30;;;;;;;1.19;82.99;100939.78;2928286;81;21006;-73
2022/01/16 03:47:35;;;;;;;56.65;33.00;;;;;;;1.02;83.47;100935.94;2928171;81;21049;-73
2022/01/16 03:51:39;;;;;;;45.80;29.27;;;;;;;0.99;83.87;100933.41;2928069;81;21001;-72
2022/01/16 03:55:41;;;;;;;47.08;25.68;;;;;;;0.93;84.12;100929.22;2928061;80;21644;-73
2022/01/16 03:59:42;;;;;;;46.63;24.87;;;;;;;0.95;84.02;100922.63;2927969;81;21024;-72
2022/01/16 04:03:44;;;;;;;44.42;26.55;;;;;;;0.79;84.37;100911.79;2927966;81;21021;-73
2022/01/16 04:07:46;;;;;;;41.37;25.65;;;;;;;0.70;84.57;100908.53;2927616;81;20986;-73
2022/01/16 04:11:53;;;;;;;46.45;26.68;;;;;;;0.51;85.68;100899.08;2928132;81;21042;-72
2022/01/16 04:15:53;;;;;;;41.13;26.35;;;;;;;0.36;86.32;100884.67;2927831;80;21045;-73
2022/01/16 04:19:55;;;;;;;44.98;24.98;;;;;;;0.19;87.04;100886.48;2927770;81;20992;-73
2022/01/16 04:23:58;;;;;;;50.38;28.70;;;;;;;0.10;87.52;100877.14;2927585;81;21607;-73
2022/01/16 04:28:00;;;;;;;52.75;28.35;;;;;;;0.09;87.81;100866.70;2927500;81;20969;-72
2022/01/16 04:32:02;;;;;;;59.23;26.97;;;;;;;0.18;87.05;100859.04;2927903;81;21002;-73
2022/01/16 04:36:04;;;;;;;64.70;33.98;;;;;;;0.11;87.45;100869.70;2927968;81;21014;-73
2022/01/16 04:40:08;;;;;;;73.28;35.95;;;;;;;-0.03;88.25;100853.53;2920841;81;21468;-73
2022/01/16 04:44:09;;;;;;;69.37;33.00;;;;;;;-0.15;88.80;100849.51;2919637;81;21032;-72
2022/01/16 04:48:11;;;;;;;69.45;36.10;;;;;;;-0.15;88.78;100846.45;2919675;81;21531;-72
2022/01/16 04:52:13;;;;;;;70.15;37.70;;;;;;;-0.09;88.34;100838.89;2919879;81;21055;-72
2022/01/16 04:56:15;;;;;;;66.30;36.13;;;;;;;0.05;87.59;100832.38;2919726;81;20983;-70
2022/01/16 05:00:17;;;;;;;70.83;41.50;;;;;;;-0.02;87.45;100824.73;2919597;81;21554;-72
2022/01/16 05:04:19;;;;;;;76.82;40.28;;;;;;;-0.07;87.70;100817.91;2919481;81;21014;-72
2022/01/16 05:08:21;;;;;;;65.75;39.95;;;;;;;-0.09;87.90;100811.87;2919596;81;21002;-72
2022/01/16 05:12:43;;;;;;;77.40;43.15;;;;;;;-0.07;87.85;100813.98;2919580;81;21066;-72
2022/01/16 05:16:35;;;;;;;69.67;40.28;;;;;;;-0.16;88.37;100812.05;2910297;81;21030;-72
2022/01/16 05:20:37;;;;;;;76.17;39.65;;;;;;;-0.24;89.06;100800.94;2919798;81;20987;-73
2022/01/16 05:24:38;;;;;;;71.25;43.33;;;;;;;-0.26;89.18;100803.21;2919719;81;21566;-72
2022/01/16 05:28:41;;;;;;;79.10;39.85;;;;;;;-0.31;89.68;100796.33;2919473;81;20991;-73
2022/01/16 05:32:42;;;;;;;67.58;38.85;;;;;;;-0.31;89.51;100783.26;2919573;81;21097;-72
2022/01/16 05:36:45;;;;;;;77.75;42.98;;;;;;;-0.42;89.95;100777.93;2919277;81;20991;-73
2022/01/16 05:40:46;;;;;;;61.95;42.40;;;;;;;-0.39;89.82;100761.72;2927072;81;21065;-71
2022/01/16 05:44:48;;;;;;;70.62;40.80;;;;;;;-0.31;89.55;100751.05;2927384;81;21072;-73
2022/01/16 05:48:50;;;;;;;77.80;41.25;;;;;;;-0.24;88.81;100743.88;2927394;81;20987;-73
2022/01/16 05:52:52;;;;;;;84.58;44.50;;;;;;;-0.12;88.10;100728.27;2927294;81;21104;-72
2022/01/16 05:56:54;;;;;;;79.85;43.80;;;;;;;0.01;87.50;100730.06;2927280;81;21045;-73
2022/01/16 06:00:55;;;;;;;77.45;44.45;;;;;;;-0.13;87.25;100719.56;2927562;81;21077;-73
2022/01/16 06:04:57;;;;;;;76.42;43.23;;;;;;;-0.24;87.56;100713.34;2927499;81;21082;-73
2022/01/16 06:08:59;;;;;;;90.97;49.25;;;;;;;-0.19;87.52;100716.70;2927375;81;21029;-73
2022/01/16 06:13:02;;;;;;;76.15;39.38;;;;;;;-0.11;87.40;100712.98;2927357;81;21545;-72
2022/01/16 06:17:04;;;;;;;84.03;45.08;;;;;;;-0.15;87.30;100710.47;2927396;81;21057;-71
2022/01/16 06:21:06;;;;;;;89.97;46.63;;;;;;;-0.24;88.13;100697.66;2927248;81;21610;-73
2022/01/16 06:25:08;;;;;;;68.25;42.35;;;;;;;-0.32;88.68;100687.89;2927029;81;21009;-72
2022/01/16 06:29:10;;;;;;;91.42;49.20;;;;;;;-0.31;88.48;100692.22;2927584;81;20982;-73
2022/01/16 06:33:12;;;;;;;194.57;112.70;;;;;;;-0.31;88.77;100690.91;2927387;81;21599;-71
2022/01/16 06:37:14;;;;;;;217.62;131.82;;;;;;;-0.31;88.71;100680.45;2926996;81;21553;-71
2022/01/16 06:41:15;;;;;;;103.90;52.60;;;;;;;-0.24;88.55;100679.82;2919599;81;20999;-73
2022/01/16 06:45:17;;;;;;;77.20;42.13;;;;;;;-0.25;88.53;100674.19;2919437;81;21058;-72
2022/01/16 06:49:18;;;;;;;71.47;40.08;;;;;;;-0.12;88.08;100665.05;2919937;81;21053;-71
2022/01/16 06:53:20;;;;;;;81.32;43.30;;;;;;;-0.09;87.80;100668.03;2919907;81;21025;-72
2022/01/16 06:57:21;;;;;;;77.45;43.98;;;;;;;-0.04;87.62;100664.37;2919817;81;20998;-72
2022/01/16 07:01:24;;;;;;;88.78;45.63;;;;;;;-0.07;87.92;100666.21;2919793;81;21503;-72
2022/01/16 07:05:26;;;;;;;83.17;49.13;;;;;;;0.10;87.17;100661.30;2919824;81;21230;-72
2022/01/16 07:09:27;;;;;;;68.72;46.30;;;;;;;0.23;86.48;100655.69;2919835;81;20987;-73
2022/01/16 07:13:30;;;;;;;76.77;48.60;;;;;;;0.42;85.66;100651.55;2919906;81;21050;-72
2022/01/16 07:17:31;;;;;;;74.90;41.20;;;;;;;0.51;84.95;100644.28;2919682;81;21042;-72
2022/01/16 07:21:33;;;;;;;77.95;43.35;;;;;;;0.58;84.51;100647.08;2919755;81;21026;-73
2022/01/16 07:25:34;;;;;;;72.00;37.00;;;;;;;0.61;84.15;100645.69;2919840;81;21054;-72
2022/01/16 07:29:36;;;;;;;64.75;35.20;;;;;;;0.71;84.10;100647.53;2920019;81;21515;-72
2022/01/16 07:33:38;;;;;;;57.80;36.73;;;;;;;0.69;84.51;100655.42;2919683;81;20999;-73
2022/01/16 07:37:39;;;;;;;102.47;61.28;;;;;;;0.78;84.53;100654.69;2919733;81;21073;-73
2022/01/16 07:41:41;;;;;;;69.07;42.23;;;;;;;0.89;84.89;100651.25;2885284;81;20980;-72
2022/01/16 07:45:42;;;;;;;73.78;45.52;;;;;;;1.01;84.63;100650.42;2870069;82;21055;-72
2022/01/16 07:49:44;;;;;;;60.75;36.68;;;;;;;1.12;84.16;100645.62;2869967;82;20945;-73
2022/01/16 07:53:45;;;;;;;65.87;37.33;;;;;;;1.22;84.17;100648.33;2869311;83;21032;-73
2022/01/16 07:57:47;;;;;;;62.98;38.58;;;;;;;1.34;83.67;100640.89;2869542;82;21015;-71
2022/01/16 08:01:48;;;;;;;68.87;40.63;;;;;;;1.43;83.73;100656.30;2870678;82;21008;-74
2022/01/16 08:05:50;;;;;;;67.75;36.90;;;;;;;1.53;83.58;100645.84;2871828;82;21055;-75
2022/01/16 08:09:51;;;;;;;76.28;43.05;;;;;;;1.62;83.52;100643.80;2872044;81;20929;-73
2022/01/16 08:13:53;;;;;;;76.82;39.73;;;;;;;1.69;83.19;100633.45;2870556;81;21004;-71
2022/01/16 08:17:55;;;;;;;75.52;38.83;;;;;;;1.79;83.14;100623.00;2871121;83;20992;-72
2022/01/16 08:21:57;;;;;;;67.87;38.67;;;;;;;1.91;83.13;100616.84;2871549;83;21035;-72
2022/01/16 08:25:59;;;;;;;69.42;37.42;;;;;;;2.06;82.91;100609.67;2870858;82;21040;-70
2022/01/16 08:30:00;;;;;;;124.78;72.50;;;;;;;2.15;82.43;100612.38;2871260;82;20981;-72
2022/01/16 08:34:02;;;;;;;81.28;57.53;;;;;;;2.22;82.36;100603.80;2871265;83;21560;-73
2022/01/16 08:38:04;;;;;;;84.70;47.60;;;;;;;2.29;82.41;100609.17;2875891;81;21106;-73
2022/01/16 08:42:07;;;;;;;80.32;45.85;;;;;;;2.43;82.69;100605.50;2949002;80;20988;-73
2022/01/16 08:46:08;;;;;;;70.03;41.63;;;;;;;2.57;82.73;100597.03;2948713;80;21000;-73
2022/01/16 08:50:12;;;;;;;71.87;38.78;;;;;;;2.74;82.37;100602.00;2948691;79;21050;-74
2022/01/16 08:54:13;;;;;;;65.85;38.50;;;;;;;2.89;82.18;100599.15;2948272;80;21090;-74
2022/01/16 08:58:15;;;;;;;83.22;54.45;;;;;;;2.98;81.63;100593.50;2917898;81;21000;-73
2022/01/16 09:02:17;;;;;;;73.10;42.88;;;;;;;3.14;81.28;100587.52;2918322;81;21012;-75
2022/01/16 09:06:19;;;;;;;63.52;42.60;;;;;;;3.31;81.41;100587.20;2918284;81;21007;-74
2022/01/16 09:10:21;;;;;;;74.05;46.30;;;;;;;3.27;81.98;100591.30;2918481;81;21023;-72
2022/01/16 09:14:22;;;;;;;84.97;48.33;;;;;;;3.34;82.12;100582.66;2918610;81;21024;-71
2022/01/16 09:18:25;;;;;;;77.15;46.90;;;;;;;3.35;81.14;100594.88;2918641;81;21035;-73
2022/01/16 09:22:27;;;;;;;85.28;47.33;;;;;;;3.45;80.52;100599.73;2919195;81;21497;-73
2022/01/16 09:26:29;;;;;;;59.70;36.70;;;;;;;3.49;80.62;100609.17;2921663;79;21021;-76
2022/01/16 09:30:31;;;;;;;73.00;36.00;;;;;;;3.56;81.07;100611.89;2876851;82;21010;-73
2022/01/16 09:34:33;;;;;;;54.58;35.45;;;;;;;3.73;81.50;100615.50;2929272;81;21018;-73
2022/01/16 09:38:37;;;;;;;46.53;28.15;;;;;;;3.89;81.04;100622.19;2929883;80;21005;-73
2022/01/16 09:42:39;;;;;;;39.80;26.00;;;;;;;4.01;79.67;100618.97;2882128;82;21033;-74
2022/01/16 09:46:40;;;;;;;49.38;29.60;;;;;;;4.04;79.78;100614.02;2881943;82;21011;-75
2022/01/16 09:50:44;;;;;;;60.00;36.68;;;;;;;3.99;79.77;100610.30;2882169;81;21519;-72
2022/01/16 09:54:49;;;;;;;60.08;37.38;;;;;;;4.02;79.72;100602.23;2881759;82;21061;-73
2022/01/16 09:58:52;;;;;;;49.63;35.73;;;;;;;4.01;79.92;100599.22;2935043;81;21093;-74
2022/01/16 10:02:57;;;;;;;52.83;36.17;;;;;;;4.10;80.09;100589.53;2935181;81;21025;-73
2022/01/16 10:07:04;;;;;;;57.60;37.57;;;;;;;4.18;79.76;100593.11;2935104;81;21053;-73
2022/01/16 10:11:23;;;;;;;62.33;41.58;;;;;;;4.30;79.55;100591.62;2933984;81;21041;-74
2022/01/16 10:15:28;;;;;;;68.60;41.88;;;;;;;4.31;79.35;100584.11;2934311;79;21045;-72
2022/01/16 10:19:31;;;;;;;55.15;36.08;;;;;;;4.37;79.65;100577.69;2881409;82;21085;-74
2022/01/16 10:23:44;;;;;;;65.83;32.48;;;;;;;4.28;79.02;100578.56;2881475;82;21058;-74
2022/01/16 10:27:47;;;;;;;50.35;32.88;;;;;;;4.35;77.97;100575.16;2881095;82;20998;-75
2022/01/16 10:31:50;;;;;;;50.78;32.25;;;;;;;4.41;76.28;100551.12;2933944;81;21045;-74
2022/01/16 10:35:54;;;;;;;53.60;31.30;;;;;;;4.49;76.12;100555.13;2934930;81;21080;-72
2022/01/16 10:40:16;;;;;;;51.58;28.80;;;;;;;4.53;75.76;100551.42;2881449;81;21092;-73
2022/01/16 10:44:33;;;;;;;60.08;30.50;;;;;;;4.41;74.61;100541.03;2934774;81;21082;-72
2022/01/16 10:48:38;;;;;;;43.70;25.45;;;;;;;4.46;75.29;100536.84;2934706;81;20998;-75
2022/01/16 10:52:52;;;;;;;37.17;25.20;;;;;;;4.39;74.33;100521.38;2933388;81;21573;-74
2022/01/16 10:56:55;;;;;;;54.10;32.28;;;;;;;4.56;75.37;100509.94;2933614;81;21044;-75
2022/01/16 11:01:03;;;;;;;53.55;31.97;;;;;;;4.70;75.46;100511.83;2933916;81;21050;-79
2022/01/16 11:05:08;;;;;;;58.48;32.93;;;;;;;4.81;75.55;100510.41;2935104;81;21908;-74
2022/01/16 11:09:09;;;;;;;54.70;32.23;;;;;;;4.87;76.29;100511.39;2936084;81;21018;-71
2022/01/16 11:13:18;;;;;;;56.30;34.13;;;;;;;5.06;75.79;100511.25;2935867;81;21048;-71
2022/01/16 11:17:21;;;;;;;52.62;31.97;;;;;;;5.25;75.13;100497.03;2906664;81;29933;-71
2022/01/16 11:21:34;;;;;;;52.88;29.30;;;;;;;5.38;74.66;100494.06;2935844;81;21001;-75
2022/01/16 11:25:38;;;;;;;45.80;32.78;;;;;;;5.49;73.91;100481.58;2934420;81;21544;-70
2022/01/16 11:29:41;;;;;;;56.37;32.85;;;;;;;5.51;72.34;100478.41;2936083;81;21093;-73
2022/01/16 11:33:44;;;;;;;46.98;28.75;;;;;;;5.39;72.62;100479.10;2935975;81;21041;-73
2022/01/16 11:37:47;;;;;;;45.80;28.62;;;;;;;5.44;71.86;100471.77;2935796;81;21021;-74
2022/01/16 11:41:53;;;;;;;45.45;26.02;;;;;;;5.43;71.93;100466.97;2931191;81;21042;-74
2022/01/16 11:46:11;;;;;;;43.85;27.73;;;;;;;5.39;69.92;100460.64;2930430;81;21049;-74
2022/01/16 11:50:13;;;;;;;53.08;27.13;;;;;;;5.34;70.68;100464.84;2930544;81;21030;-72
2022/01/16 11:54:34;;;;;;;36.40;24.52;;;;;;;5.51;72.51;100446.75;2930013;81;21005;-72
2022/01/16 11:59:04;;;;;;;33.85;23.05;;;;;;;5.71;73.00;100457.44;2929315;81;21038;-72
2022/01/16 12:03:22;;;;;;;33.63;21.90;;;;;;;5.79;71.54;100463.59;2929779;81;21001;-68
2022/01/16 12:07:38;;;;;;;39.98;20.72;;;;;;;5.75;71.12;100472.64;2928634;81;21015;-69
2022/01/16 12:11:39;;;;;;;46.63;26.42;;;;;;;5.49;71.68;100480.26;2929801;81;21029;-75
2022/01/16 12:15:41;;;;;;;41.77;23.35;;;;;;;5.33;70.96;100466.27;2929342;81;21018;-72
2022/01/16 12:19:45;;;;;;;41.08;25.02;;;;;;;5.23;72.58;100452.76;2929271;81;21013;-68
2022/01/16 12:23:49;;;;;;;29.65;20.32;;;;;;;5.21;74.21;100455.47;2930135;81;21011;-70
2022/01/16 12:28:11;;;;;;;53.38;27.25;;;;;;;5.17;73.39;100451.31;2929946;81;21076;-70
2022/01/16 12:32:30;;;;;;;49.60;28.73;;;;;;;5.21;73.77;100444.05;2929903;81;21037;-70
2022/01/16 12:36:34;;;;;;;45.20;29.42;;;;;;;5.27;72.88;100436.64;2878443;82;21069;-70
2022/01/16 12:40:43;;;;;;;39.35;22.52;;;;;;;5.41;71.56;100435.02;2929651;81;21316;-68
2022/01/16 12:44:41;;;;;;;50.78;24.32;;;;;;;5.54;70.52;100432.50;2926367;81;21073;-71
2022/01/16 12:48:46;;;;;;;38.53;23.70;;;;;;;5.71;72.23;100413.05;2929796;81;21003;-71
2022/01/16 12:52:48;;;;;;;36.23;23.38;;;;;;;5.80;70.84;100404.57;2929925;81;21038;-70
2022/01/16 12:57:01;;;;;;;32.15;21.68;;;;;;;5.88;70.27;100390.91;2929941;81;21030;-71
2022/01/16 13:01:05;;;;;;;33.33;20.20;;;;;;;5.93;70.22;100391.47;2930075;80;20997;-70
2022/01/16 13:05:08;;;;;;;40.50;22.67;;;;;;;5.97;70.70;100387.70;2930145;81;20994;-70
2022/01/16 13:09:11;;;;;;;51.50;30.52;;;;;;;6.06;70.86;100386.80;2930260;81;21010;-70
2022/01/16 13:13:13;;;;;;;51.90;29.52;;;;;;;6.14;71.80;100403.88;2930148;81;20990;-70
2022/01/16 13:17:16;;;;;;;48.85;27.35;;;;;;;6.25;72.48;100399.25;2930260;81;21011;-70
2022/01/16 13:21:18;;;;;;;45.50;28.42;;;;;;;6.28;72.56;100398.20;2930301;81;21037;-72
2022/01/16 13:25:20;;;;;;;42.58;29.40;;;;;;;6.32;72.83;100400.19;2930339;81;21018;-66
2022/01/16 13:29:22;;;;;;;46.65;27.62;;;;;;;6.29;72.46;100397.28;2929957;81;21025;-70
2022/01/16 13:33:24;;;;;;;51.42;30.20;;;;;;;6.27;72.36;100400.46;2930134;81;20994;-74
2022/01/16 13:37:36;;;;;;;39.25;24.90;;;;;;;6.13;72.49;100390.30;2930000;81;21009;-73
2022/01/16 13:41:42;;;;;;;46.05;28.80;;;;;;;5.93;73.51;100395.92;2924203;81;21307;-69
2022/01/16 13:45:46;;;;;;;44.93;28.65;;;;;;;5.81;74.39;100401.48;2920667;81;21061;-72
2022/01/16 13:49:52;;;;;;;44.70;27.50;;;;;;;5.77;75.00;100394.20;2922061;81;21006;-71
2022/01/16 13:53:54;;;;;;;45.67;31.17;;;;;;;5.76;74.83;100394.28;2922169;81;23002;-70
2022/01/16 13:57:58;;;;;;;46.40;31.33;;;;;;;5.70;75.44;100409.55;2921919;81;20990;-71
2022/01/16 14:02:01;;;;;;;51.23;31.17;;;;;;;5.56;75.04;100423.57;2921813;81;21007;-70
2022/01/16 14:06:07;;;;;;;51.05;26.85;;;;;;;5.42;75.53;100428.80;2922115;81;21063;-72
2022/01/16 14:10:09;;;;;;;33.10;22.00;;;;;;;5.32;75.41;100431.60;2921186;81;21054;-70
2022/01/16 14:14:14;;;;;;;41.33;23.50;;;;;;;5.09;75.63;100429.78;2921861;81;21061;-74
2022/01/16 14:18:38;;;;;;;32.85;21.48;;;;;;;4.83;76.50;100431.65;2922192;81;21022;-72
2022/01/16 14:22:27;;;;;;;26.90;16.42;;;;;;;4.82;77.61;100440.95;2917859;81;21108;-72
2022/01/16 14:26:30;;;;;;;26.90;14.78;;;;;;;4.86;77.57;100447.74;2921500;81;21082;-72
2022/01/16 14:30:31;;;;;;;28.25;16.93;;;;;;;4.74;76.92;100447.95;2921522;81;20998;-73
2022/01/16 14:34:33;;;;;;;28.77;15.95;;;;;;;4.67;77.31;100422.88;2921523;81;20955;-71
2022/01/16 14:38:38;;;;;;;30.17;18.87;;;;;;;4.62;77.61;100424.45;2921802;81;21030;-69
2022/01/16 14:42:42;;;;;;;22.82;14.98;;;;;;;4.75;78.39;100451.45;2966536;78;21072;-72
2022/01/16 14:46:46;;;;;;;33.40;17.25;;;;;;;4.70;78.52;100459.12;2974193;80;21013;-70
2022/01/16 14:50:47;;;;;;;25.08;16.35;;;;;;;4.57;77.74;100443.62;2974458;80;20990;-73
2022/01/16 14:54:49;;;;;;;28.40;19.62;;;;;;;4.46;78.42;100435.43;2974156;80;20962;-72
2022/01/16 14:58:51;;;;;;;24.57;16.87;;;;;;;4.52;79.02;100461.44;2974338;80;21268;-69
2022/01/16 15:02:53;;;;;;;27.60;18.90;;;;;;;4.45;78.90;100460.94;2974717;80;20973;-71
2022/01/16 15:06:54;;;;;;;35.60;21.77;;;;;;;4.58;79.28;100472.98;2974694;80;21044;-72
2022/01/16 15:10:56;;;;;;;35.08;20.15;;;;;;;4.43;79.20;100464.95;2975007;80;20961;-70
2022/01/16 15:14:58;;;;;;;28.50;20.55;;;;;;;4.22;79.52;100488.48;2975272;80;20977;-71
2022/01/16 15:19:07;;;;;;;28.10;20.00;;;;;;;4.17;80.42;100482.61;2972457;78;21005;-69
2022/01/16 15:23:08;;;;;;;29.45;17.50;;;;;;;4.05;80.98;100473.09;2968532;80;20974;-69
2022/01/16 15:27:10;;;;;;;38.85;21.95;;;;;;;4.00;81.49;100481.69;2969017;80;21037;-69
2022/01/16 15:31:13;;;;;;;31.30;22.02;;;;;;;3.98;81.96;100472.55;2970724;80;21025;-70
2022/01/16 15:35:18;;;;;;;38.85;24.43;;;;;;;3.96;82.58;100498.58;2975095;80;20990;-67
2022/01/16 15:39:22;;;;;;;31.60;22.48;;;;;;;3.88;82.80;100524.42;2974975;80;20974;-71
2022/01/16 15:43:23;;;;;;;41.30;24.20;;;;;;;3.79;83.11;100498.97;2976553;78;21062;-71
2022/01/16 15:47:26;;;;;;;29.27;19.77;;;;;;;3.78;83.63;100524.02;2993357;79;21092;-71
2022/01/16 15:51:28;;;;;;;35.83;24.70;;;;;;;3.81;83.51;100512.89;3035064;78;21037;-70
2022/01/16 15:55:33;;;;;;;40.58;22.90;;;;;;;3.86;83.22;100529.30;2973024;79;21004;-70
2022/01/16 15:59:35;;;;;;;33.98;22.77;;;;;;;3.79;83.30;100529.22;2964213;80;20979;-69
2022/01/16 16:03:37;;;;;;;32.40;23.62;;;;;;;3.57;83.61;100544.75;2964175;80;21022;-69
2022/01/16 16:07:39;;;;;;;35.30;19.60;;;;;;;3.48;84.33;100549.60;2964255;80;21045;-68
2022/01/16 16:11:41;;;;;;;27.22;18.40;;;;;;;3.46;84.71;100535.20;2964279;80;20991;-69
2022/01/16 16:15:43;;;;;;;29.60;20.27;;;;;;;3.35;85.77;100542.77;2964231;80;21050;-68
2022/01/16 16:19:45;;;;;;;27.55;19.60;;;;;;;3.33;86.27;100559.05;2963883;80;21018;-68
2022/01/16 16:23:47;;;;;;;37.42;19.20;;;;;;;3.26;86.91;100552.78;2964061;80;21019;-69
2022/01/16 16:27:51;;;;;;;27.90;17.90;;;;;;;3.19;87.47;100552.69;2963441;80;21002;-69
2022/01/16 16:31:53;;;;;;;32.17;20.82;;;;;;;3.14;87.84;100572.61;2964001;80;21033;-69
2022/01/16 16:35:56;;;;;;;35.60;21.80;;;;;;;3.13;88.00;100563.02;2963908;80;21014;-69
2022/01/16 16:39:58;;;;;;;34.83;21.07;;;;;;;3.16;88.11;100562.03;2963212;80;20998;-68
2022/01/16 16:43:59;;;;;;;35.05;21.00;;;;;;;3.21;88.05;100574.95;2912825;81;21019;-69
2022/01/16 16:48:01;;;;;;;29.65;19.45;;;;;;;3.26;88.22;100560.66;2827312;84;21038;-69
2022/01/16 16:52:05;;;;;;;31.95;20.77;;;;;;;3.18;88.57;100571.15;2940253;79;21065;-68
2022/01/16 16:56:06;;;;;;;34.65;21.48;;;;;;;3.26;88.51;100575.13;2939206;81;21033;-68
2022/01/16 17:00:11;;;;;;;25.43;18.15;;;;;;;3.31;88.32;100564.85;2912898;81;21503;-68
2022/01/16 17:04:13;;;;;;;29.12;20.97;;;;;;;3.28;88.50;100556.19;2827621;84;21053;-68
2022/01/16 17:08:15;;;;;;;23.05;16.42;;;;;;;3.33;88.45;100573.06;2940330;81;21029;-68
2022/01/16 17:12:17;;;;;;;28.20;20.57;;;;;;;3.30;88.61;100579.80;2940463;81;20993;-68
2022/01/16 17:16:22;;;;;;;29.02;18.90;;;;;;;3.33;88.53;100570.89;2939483;81;21006;-68
2022/01/16 17:20:24;;;;;;;39.80;19.32;;;;;;;3.38;88.47;100578.12;2913157;81;21030;-68
2022/01/16 17:24:25;;;;;;;25.92;20.10;;;;;;;3.42;88.42;100582.30;2827460;84;21563;-68
2022/01/16 17:28:28;;;;;;;23.65;17.23;;;;;;;3.45;88.28;100593.98;2939941;81;20990;-68
2022/01/16 17:32:30;;;;;;;35.55;17.67;;;;;;;3.44;88.34;100594.91;2939329;81;21049;-68
2022/01/16 17:36:31;;;;;;;27.80;19.98;;;;;;;3.38;88.65;100583.38;2912991;81;21062;-68
2022/01/16 17:40:34;;;;;;;22.80;16.45;;;;;;;3.46;88.67;100591.75;2827392;82;21022;-68
2022/01/16 17:44:35;;;;;;;25.50;16.82;;;;;;;3.48;88.66;100589.89;2939938;81;20967;-68
2022/01/16 17:48:37;;;;;;;22.93;15.55;;;;;;;3.41;88.77;100578.80;2940676;79;20989;-68
2022/01/16 17:52:39;;;;;;;27.82;16.82;;;;;;;3.40;88.79;100562.64;2941351;81;21027;-68
2022/01/16 17:56:41;;;;;;;20.68;14.90;;;;;;;3.47;88.74;100568.94;2941374;81;20993;-68
2022/01/16 18:00:45;;;;;;;25.60;15.85;;;;;;;3.50;88.81;100576.20;2941423;81;21025;-68
2022/01/16 18:04:47;;;;;;;24.27;17.15;;;;;;;3.46;88.97;100572.50;2941347;81;20970;-68
2022/01/16 18:08:48;;;;;;;23.50;16.93;;;;;;;3.47;89.00;100568.94;2941135;81;20997;-68
2022/01/16 18:12:50;;;;;;;17.77;13.72;;;;;;;3.50;89.21;100570.94;2941186;81;20993;-68
2022/01/16 18:16:51;;;;;;;22.25;14.20;;;;;;;3.52;89.27;100560.36;2941150;81;21009;-68
2022/01/16 18:20:53;;;;;;;20.97;13.88;;;;;;;3.52;89.44;100567.77;2940660;81;21506;-69
2022/01/16 18:24:55;;;;;;;22.15;15.70;;;;;;;3.59;89.50;100567.50;2945801;75;21096;-71
2022/01/16 18:28:56;;;;;;;22.37;12.18;;;;;;;3.56;89.73;100582.51;2991625;79;21028;-74
2022/01/16 18:32:58;;;;;;;17.85;12.63;;;;;;;3.51;90.19;100584.48;2991842;79;20989;-73
2022/01/16 18:37:00;;;;;;;22.37;14.35;;;;;;;3.52;90.47;100582.72;2991688;79;20957;-73
2022/01/16 18:41:04;;;;;;;23.38;14.40;;;;;;;3.45;90.90;100578.20;2927915;81;21536;-74
2022/01/16 18:45:10;;;;;;;21.25;15.00;;;;;;;3.43;90.95;100570.38;2927958;81;20974;-74
2022/01/16 18:49:11;;;;;;;15.37;12.03;;;;;;;3.42;90.90;100556.84;2928027;81;20946;-74
2022/01/16 18:53:14;;;;;;;17.35;11.55;;;;;;;3.37;91.00;100553.58;2929896;81;21009;-73
2022/01/16 18:57:16;;;;;;;15.48;12.53;;;;;;;3.44;90.89;100576.50;2930336;81;20978;-73
2022/01/16 19:01:18;;;;;;;17.52;12.43;;;;;;;3.45;90.76;100574.73;2927926;81;21009;-73
2022/01/16 19:05:21;;;;;;;16.67;12.80;;;;;;;3.47;90.87;100569.78;2927745;81;21017;-73
2022/01/16 19:09:23;;;;;;;17.62;13.35;;;;;;;3.40;90.89;100559.17;2927671;81;21419;-73
2022/01/16 19:13:25;;;;;;;19.62;12.37;;;;;;;3.46;90.78;100572.50;2927789;81;20970;-73
2022/01/16 19:17:27;;;;;;;16.87;11.93;;;;;;;3.50;90.71;100572.26;2927625;81;21005;-73
2022/01/16 19:21:29;;;;;;;17.85;13.08;;;;;;;3.52;90.42;100559.88;2927997;81;20990;-74